Ida, AR (72546)

3:45 AM CST on February 12, 2016 (GMT -0600)
Greers Ferry Lake | | Change Station
CLOSE
Current Station
Personal Weather Station
Location: Heber Springs, AR
Elevation: 502 ft
Nearby Weather Stations

Elev 502 ft 35.53 °N, 92.04 °W | Updated 24 seconds ago

Clear
Clear
32.2 °F
Feels Like 32 °F
N
0.0
Wind Variable Wind from ENE
Gusts 0.0 mph

Today
High -- | Low -- °F
--% Chance of Precip.
Yesterday
High -- | Low -- °F
Precip. -- in
Pressure 30.18 in
Visibility 10.0 miles
Clouds Clear
Windchill 32 °F
Dew Point 22 °F
Humidity 65%
Rainfall 0.00 in
Snow Depth Not available.
6:58 AM 5:46 PM
Waxing Crescent, 19% visible
METAR KBVX 120935Z AUTO 22004KT 10SM CLR M01/M06 A3018 RMK AO1
Pressure 30.18 in
Visibility 10.0 miles
Clouds Clear
Windchill 32 °F
Dew Point 22 °F
Humidity 65%
Rainfall 0.00 in
Snow Depth Not available.
6:58 AM 5:46 PM
Waxing Crescent, 19% visible
METAR KBVX 120935Z AUTO 22004KT 10SM CLR M01/M06 A3018 RMK AO1

10-Day Weather Forecast

Almanac

Astronomy

Feb. 12, 2016 Rise Set
Actual Time
Civil Twilight
Nautical Twilight
Astronomical Twilight
Moon
Length of Visible Light
Length of Day
Tomorrow will be .
, % of the Moon is Illuminated

Today's Extremes

State Highs State Lows

Community

WunderPhotos

Upload Photos

1,892,286 photos uploaded!

WunderBlog® & News

Nearby

Air Quality

  Air Quality AQ Index Pollutant
Not available.

Snow Depth

Station Depth Elevation

Earthquake Activity

City Distance Mag. Time & Date
Minimum magnitude displayed is 2.5.

Coastal Water Temperatures

Place Temperature

Stations

Nearby Weather Stations

Station Location Temp. Windchill Dew Point Humidity Wind Precip. Elev Updated Type
                   

Watches & Warnings

There are currently no watches in effect.